sensor_id;sensor_type;location;lat;lon;timestamp;temperature;humidity
2030;DHT22;1020;48.854;8.830;2022-11-11T00:00:59;5.90;99.90
2030;DHT22;1020;48.854;8.830;2022-11-11T00:03:26;5.80;99.90
2030;DHT22;1020;48.854;8.830;2022-11-11T00:05:53;5.70;99.90
2030;DHT22;1020;48.854;8.830;2022-11-11T00:08:20;5.60;99.90
2030;DHT22;1020;48.854;8.830;2022-11-11T00:10:48;5.50;99.90
2030;DHT22;1020;48.854;8.830;2022-11-11T00:13:15;5.50;99.90
2030;DHT22;1020;48.854;8.830;2022-11-11T00:15:42;5.40;99.90
2030;DHT22;1020;48.854;8.830;2022-11-11T00:18:09;5.30;99.90
2030;DHT22;1020;48.854;8.830;2022-11-11T00:20:57;5.20;99.90
2030;DHT22;1020;48.854;8.830;2022-11-11T00:23:41;5.10;99.90
2030;DHT22;1020;48.854;8.830;2022-11-11T00:26:27;5.10;99.90
2030;DHT22;1020;48.854;8.830;2022-11-11T00:28:54;5.00;99.90
2030;DHT22;1020;48.854;8.830;2022-11-11T00:31:20;5.00;99.90
2030;DHT22;1020;48.854;8.830;2022-11-11T00:33:47;4.90;99.90
2030;DHT22;1020;48.854;8.830;2022-11-11T00:36:14;4.90;99.90
2030;DHT22;1020;48.854;8.830;2022-11-11T00:38:40;4.90;99.90
2030;DHT22;1020;48.854;8.830;2022-11-11T00:41:15;4.90;99.90
2030;DHT22;1020;48.854;8.830;2022-11-11T00:43:44;4.90;99.90
2030;DHT22;1020;48.854;8.830;2022-11-11T00:46:12;4.90;99.90
2030;DHT22;1020;48.854;8.830;2022-11-11T00:48:56;4.90;99.90
2030;DHT22;1020;48.854;8.830;2022-11-11T00:51:41;4.90;99.90
2030;DHT22;1020;48.854;8.830;2022-11-11T00:54:08;4.90;99.90
2030;DHT22;1020;48.854;8.830;2022-11-11T00:56:35;4.90;99.90
2030;DHT22;1020;48.854;8.830;2022-11-11T00:59:04;4.90;99.90
2030;DHT22;1020;48.854;8.830;2022-11-11T01:01:31;4.90;99.90
2030;DHT22;1020;48.854;8.830;2022-11-11T01:03:58;4.90;99.90
2030;DHT22;1020;48.854;8.830;2022-11-11T01:06:25;4.90;99.90
2030;DHT22;1020;48.854;8.830;2022-11-11T01:08:52;4.90;99.90
2030;DHT22;1020;48.854;8.830;2022-11-11T01:11:20;5.10;99.90
2030;DHT22;1020;48.854;8.830;2022-11-11T01:13:47;5.20;99.90
2030;DHT22;1020;48.854;8.830;2022-11-11T01:16:17;5.30;99.90
2030;DHT22;1020;48.854;8.830;2022-11-11T01:18:44;5.40;99.90
2030;DHT22;1020;48.854;8.830;2022-11-11T01:21:12;5.40;99.90
2030;DHT22;1020;48.854;8.830;2022-11-11T01:23:41;5.50;99.90
2030;DHT22;1020;48.854;8.830;2022-11-11T01:26:12;5.40;99.90
2030;DHT22;1020;48.854;8.830;2022-11-11T01:28:39;5.30;99.90
2030;DHT22;1020;48.854;8.830;2022-11-11T01:31:09;5.30;99.90
2030;DHT22;1020;48.854;8.830;2022-11-11T01:33:37;5.20;99.90
2030;DHT22;1020;48.854;8.830;2022-11-11T01:36:06;5.20;99.90
2030;DHT22;1020;48.854;8.830;2022-11-11T01:38:34;5.30;99.90
2030;DHT22;1020;48.854;8.830;2022-11-11T01:41:01;5.20;99.90
2030;DHT22;1020;48.854;8.830;2022-11-11T01:43:49;5.20;99.90
2030;DHT22;1020;48.854;8.830;2022-11-11T01:46:30;5.20;99.90
2030;DHT22;1020;48.854;8.830;2022-11-11T01:49:08;5.20;99.90
2030;DHT22;1020;48.854;8.830;2022-11-11T01:51:48;5.30;99.90
2030;DHT22;1020;48.854;8.830;2022-11-11T01:54:20;5.20;99.90
2030;DHT22;1020;48.854;8.830;2022-11-11T01:56:50;5.20;99.90
2030;DHT22;1020;48.854;8.830;2022-11-11T01:59:19;5.20;99.90
2030;DHT22;1020;48.854;8.830;2022-11-11T02:01:47;5.30;99.90
2030;DHT22;1020;48.854;8.830;2022-11-11T02:04:16;5.30;99.90
2030;DHT22;1020;48.854;8.830;2022-11-11T02:07:06;5.30;99.90
2030;DHT22;1020;48.854;8.830;2022-11-11T02:09:35;5.30;99.90
2030;DHT22;1020;48.854;8.830;2022-11-11T02:12:06;5.30;99.90
2030;DHT22;1020;48.854;8.830;2022-11-11T02:14:53;5.30;99.90
2030;DHT22;1020;48.854;8.830;2022-11-11T02:17:23;5.20;99.90
2030;DHT22;1020;48.854;8.830;2022-11-11T02:19:55;5.10;99.90
2030;DHT22;1020;48.854;8.830;2022-11-11T02:22:28;5.10;99.90
2030;DHT22;1020;48.854;8.830;2022-11-11T02:24:59;5.10;99.90
2030;DHT22;1020;48.854;8.830;2022-11-11T02:27:30;5.00;99.90
2030;DHT22;1020;48.854;8.830;2022-11-11T02:29:58;4.90;99.90
2030;DHT22;1020;48.854;8.830;2022-11-11T02:32:25;4.90;99.90
2030;DHT22;1020;48.854;8.830;2022-11-11T02:34:52;5.10;99.90
2030;DHT22;1020;48.854;8.830;2022-11-11T02:37:21;5.10;99.90
2030;DHT22;1020;48.854;8.830;2022-11-11T02:39:49;5.20;99.90
2030;DHT22;1020;48.854;8.830;2022-11-11T02:42:20;5.20;99.90
2030;DHT22;1020;48.854;8.830;2022-11-11T02:44:46;5.30;99.90
2030;DHT22;1020;48.854;8.830;2022-11-11T02:47:13;5.20;99.90
2030;DHT22;1020;48.854;8.830;2022-11-11T02:49:40;5.30;99.90
2030;DHT22;1020;48.854;8.830;2022-11-11T02:52:07;5.20;99.90
2030;DHT22;1020;48.854;8.830;2022-11-11T02:54:34;5.10;99.90
2030;DHT22;1020;48.854;8.830;2022-11-11T02:57:00;5.10;99.90
2030;DHT22;1020;48.854;8.830;2022-11-11T02:59:35;5.10;99.90
2030;DHT22;1020;48.854;8.830;2022-11-11T03:02:02;5.10;99.90
2030;DHT22;1020;48.854;8.830;2022-11-11T03:04:29;5.20;99.90
2030;DHT22;1020;48.854;8.830;2022-11-11T03:06:56;5.20;99.90
2030;DHT22;1020;48.854;8.830;2022-11-11T03:09:22;5.30;99.90
2030;DHT22;1020;48.854;8.830;2022-11-11T03:11:49;5.30;99.90
2030;DHT22;1020;48.854;8.830;2022-11-11T03:14:16;5.30;99.90
2030;DHT22;1020;48.854;8.830;2022-11-11T03:16:44;5.40;99.90
2030;DHT22;1020;48.854;8.830;2022-11-11T03:19:28;5.40;99.90
2030;DHT22;1020;48.854;8.830;2022-11-11T03:21:56;5.30;99.90
2030;DHT22;1020;48.854;8.830;2022-11-11T03:24:23;5.40;99.90
2030;DHT22;1020;48.854;8.830;2022-11-11T03:27:10;5.40;99.90
2030;DHT22;1020;48.854;8.830;2022-11-11T03:29:35;5.40;99.90
2030;DHT22;1020;48.854;8.830;2022-11-11T03:32:04;5.40;99.90
2030;DHT22;1020;48.854;8.830;2022-11-11T03:34:31;5.40;99.90
2030;DHT22;1020;48.854;8.830;2022-11-11T03:36:57;5.30;99.90
2030;DHT22;1020;48.854;8.830;2022-11-11T03:39:42;5.30;99.90
2030;DHT22;1020;48.854;8.830;2022-11-11T03:42:09;5.20;99.90
2030;DHT22;1020;48.854;8.830;2022-11-11T03:44:35;5.20;99.90
2030;DHT22;1020;48.854;8.830;2022-11-11T03:47:03;5.10;99.90
2030;DHT22;1020;48.854;8.830;2022-11-11T03:49:30;5.00;99.90
2030;DHT22;1020;48.854;8.830;2022-11-11T03:51:57;5.00;99.90
2030;DHT22;1020;48.854;8.830;2022-11-11T03:54:24;5.10;99.90
2030;DHT22;1020;48.854;8.830;2022-11-11T03:56:50;5.10;99.90
2030;DHT22;1020;48.854;8.830;2022-11-11T03:59:17;5.10;99.90
2030;DHT22;1020;48.854;8.830;2022-11-11T04:01:44;5.30;99.90
2030;DHT22;1020;48.854;8.830;2022-11-11T04:04:29;5.30;99.90
2030;DHT22;1020;48.854;8.830;2022-11-11T04:07:16;5.50;99.90
2030;DHT22;1020;48.854;8.830;2022-11-11T04:10:00;5.50;99.90
2030;DHT22;1020;48.854;8.830;2022-11-11T04:12:44;5.60;99.90
2030;DHT22;1020;48.854;8.830;2022-11-11T04:15:28;5.50;99.90
2030;DHT22;1020;48.854;8.830;2022-11-11T04:18:12;5.40;99.90
2030;DHT22;1020;48.854;8.830;2022-11-11T04:20:43;5.30;99.90
2030;DHT22;1020;48.854;8.830;2022-11-11T04:23:27;5.30;99.90
2030;DHT22;1020;48.854;8.830;2022-11-11T04:25:53;5.20;99.90
2030;DHT22;1020;48.854;8.830;2022-11-11T04:28:21;5.30;99.90
2030;DHT22;1020;48.854;8.830;2022-11-11T04:31:05;5.30;99.90
2030;DHT22;1020;48.854;8.830;2022-11-11T04:33:32;5.40;99.90
2030;DHT22;1020;48.854;8.830;2022-11-11T04:36:00;5.50;99.90
2030;DHT22;1020;48.854;8.830;2022-11-11T04:38:27;5.70;99.90
2030;DHT22;1020;48.854;8.830;2022-11-11T04:41:11;5.70;99.90
2030;DHT22;1020;48.854;8.830;2022-11-11T04:43:38;5.90;99.90
2030;DHT22;1020;48.854;8.830;2022-11-11T04:46:18;5.90;99.90
2030;DHT22;1020;48.854;8.830;2022-11-11T04:48:45;5.90;99.90
2030;DHT22;1020;48.854;8.830;2022-11-11T04:51:13;5.70;99.90
2030;DHT22;1020;48.854;8.830;2022-11-11T04:53:40;5.60;99.90
2030;DHT22;1020;48.854;8.830;2022-11-11T04:56:07;5.60;99.90
2030;DHT22;1020;48.854;8.830;2022-11-11T04:58:51;5.60;99.90
2030;DHT22;1020;48.854;8.830;2022-11-11T05:01:38;5.60;99.90
2030;DHT22;1020;48.854;8.830;2022-11-11T05:04:34;5.60;99.90
2030;DHT22;1020;48.854;8.830;2022-11-11T05:07:02;5.50;99.90
2030;DHT22;1020;48.854;8.830;2022-11-11T05:09:46;5.40;99.90
2030;DHT22;1020;48.854;8.830;2022-11-11T05:12:13;5.40;99.90
2030;DHT22;1020;48.854;8.830;2022-11-11T05:14:40;5.40;99.90
2030;DHT22;1020;48.854;8.830;2022-11-11T05:17:24;5.30;99.90
2030;DHT22;1020;48.854;8.830;2022-11-11T05:20:09;5.20;99.90
2030;DHT22;1020;48.854;8.830;2022-11-11T05:22:55;5.10;99.90
2030;DHT22;1020;48.854;8.830;2022-11-11T05:25:21;5.00;99.90
2030;DHT22;1020;48.854;8.830;2022-11-11T05:27:50;5.00;99.90
2030;DHT22;1020;48.854;8.830;2022-11-11T05:30:18;5.00;99.90
2030;DHT22;1020;48.854;8.830;2022-11-11T05:32:45;5.00;99.90
2030;DHT22;1020;48.854;8.830;2022-11-11T05:35:12;5.00;99.90
2030;DHT22;1020;48.854;8.830;2022-11-11T05:37:40;5.00;99.90
2030;DHT22;1020;48.854;8.830;2022-11-11T05:40:09;5.00;99.90
2030;DHT22;1020;48.854;8.830;2022-11-11T05:42:40;5.00;99.90
2030;DHT22;1020;48.854;8.830;2022-11-11T05:45:08;5.00;99.90
2030;DHT22;1020;48.854;8.830;2022-11-11T05:47:35;5.00;99.90
2030;DHT22;1020;48.854;8.830;2022-11-11T05:50:02;5.00;99.90
2030;DHT22;1020;48.854;8.830;2022-11-11T05:52:29;4.90;99.90
2030;DHT22;1020;48.854;8.830;2022-11-11T05:54:56;4.90;99.90
2030;DHT22;1020;48.854;8.830;2022-11-11T05:57:25;4.90;99.90
2030;DHT22;1020;48.854;8.830;2022-11-11T05:59:51;4.90;99.90
2030;DHT22;1020;48.854;8.830;2022-11-11T06:02:18;4.80;99.90
2030;DHT22;1020;48.854;8.830;2022-11-11T06:04:45;4.80;99.90
2030;DHT22;1020;48.854;8.830;2022-11-11T06:07:12;4.80;99.90
2030;DHT22;1020;48.854;8.830;2022-11-11T06:09:39;4.80;99.90
2030;DHT22;1020;48.854;8.830;2022-11-11T06:12:06;4.70;99.90
2030;DHT22;1020;48.854;8.830;2022-11-11T06:14:34;4.70;99.90
2030;DHT22;1020;48.854;8.830;2022-11-11T06:17:00;4.70;99.90
2030;DHT22;1020;48.854;8.830;2022-11-11T06:19:27;4.80;99.90
2030;DHT22;1020;48.854;8.830;2022-11-11T06:21:54;4.90;99.90
2030;DHT22;1020;48.854;8.830;2022-11-11T06:24:25;4.90;99.90
2030;DHT22;1020;48.854;8.830;2022-11-11T06:26:52;5.00;99.90
2030;DHT22;1020;48.854;8.830;2022-11-11T06:29:18;5.00;99.90
2030;DHT22;1020;48.854;8.830;2022-11-11T06:31:47;5.00;99.90
2030;DHT22;1020;48.854;8.830;2022-11-11T06:34:13;5.00;99.90
2030;DHT22;1020;48.854;8.830;2022-11-11T06:36:41;4.90;99.90
2030;DHT22;1020;48.854;8.830;2022-11-11T06:39:08;4.80;99.90
2030;DHT22;1020;48.854;8.830;2022-11-11T06:41:34;4.80;99.90
2030;DHT22;1020;48.854;8.830;2022-11-11T06:44:01;4.90;99.90
2030;DHT22;1020;48.854;8.830;2022-11-11T06:46:28;4.90;99.90
2030;DHT22;1020;48.854;8.830;2022-11-11T06:48:57;4.80;99.90
2030;DHT22;1020;48.854;8.830;2022-11-11T06:51:23;4.70;99.90
2030;DHT22;1020;48.854;8.830;2022-11-11T06:53:50;4.70;99.90
2030;DHT22;1020;48.854;8.830;2022-11-11T06:56:17;4.70;99.90
2030;DHT22;1020;48.854;8.830;2022-11-11T06:58:44;4.70;99.90
2030;DHT22;1020;48.854;8.830;2022-11-11T07:01:11;4.60;99.90
2030;DHT22;1020;48.854;8.830;2022-11-11T07:03:39;4.60;99.90
2030;DHT22;1020;48.854;8.830;2022-11-11T07:06:07;4.50;99.90
2030;DHT22;1020;48.854;8.830;2022-11-11T07:08:34;4.50;99.90
2030;DHT22;1020;48.854;8.830;2022-11-11T07:11:00;4.50;99.90
2030;DHT22;1020;48.854;8.830;2022-11-11T07:13:27;4.40;99.90
2030;DHT22;1020;48.854;8.830;2022-11-11T07:15:54;4.30;99.90
2030;DHT22;1020;48.854;8.830;2022-11-11T07:18:21;4.30;99.90
2030;DHT22;1020;48.854;8.830;2022-11-11T07:20:47;4.40;99.90
2030;DHT22;1020;48.854;8.830;2022-11-11T07:23:16;4.40;99.90
2030;DHT22;1020;48.854;8.830;2022-11-11T07:25:43;4.50;99.90
2030;DHT22;1020;48.854;8.830;2022-11-11T07:28:10;4.70;99.90
2030;DHT22;1020;48.854;8.830;2022-11-11T07:30:37;4.70;99.90
2030;DHT22;1020;48.854;8.830;2022-11-11T07:33:04;4.70;99.90
2030;DHT22;1020;48.854;8.830;2022-11-11T07:35:30;4.80;99.90
2030;DHT22;1020;48.854;8.830;2022-11-11T07:37:57;4.80;99.90
2030;DHT22;1020;48.854;8.830;2022-11-11T07:40:25;4.80;99.90
2030;DHT22;1020;48.854;8.830;2022-11-11T07:42:52;4.90;99.90
2030;DHT22;1020;48.854;8.830;2022-11-11T07:45:19;5.00;99.90
2030;DHT22;1020;48.854;8.830;2022-11-11T07:47:45;5.10;99.90
2030;DHT22;1020;48.854;8.830;2022-11-11T07:50:12;5.30;99.90
2030;DHT22;1020;48.854;8.830;2022-11-11T07:52:39;5.50;99.90
2030;DHT22;1020;48.854;8.830;2022-11-11T07:55:06;5.60;99.90
2030;DHT22;1020;48.854;8.830;2022-11-11T07:57:35;5.80;99.90
2030;DHT22;1020;48.854;8.830;2022-11-11T08:00:04;5.90;99.90
2030;DHT22;1020;48.854;8.830;2022-11-11T08:02:30;6.10;99.90
2030;DHT22;1020;48.854;8.830;2022-11-11T08:04:57;6.30;99.90
2030;DHT22;1020;48.854;8.830;2022-11-11T08:07:24;6.60;99.90
2030;DHT22;1020;48.854;8.830;2022-11-11T08:09:51;6.80;99.90
2030;DHT22;1020;48.854;8.830;2022-11-11T08:12:17;6.90;99.90
2030;DHT22;1020;48.854;8.830;2022-11-11T08:15:05;6.90;99.90
2030;DHT22;1020;48.854;8.830;2022-11-11T08:17:36;6.90;99.90
2030;DHT22;1020;48.854;8.830;2022-11-11T08:20:04;7.00;99.90
2030;DHT22;1020;48.854;8.830;2022-11-11T08:22:35;7.20;99.90
2030;DHT22;1020;48.854;8.830;2022-11-11T08:25:02;7.30;99.90
2030;DHT22;1020;48.854;8.830;2022-11-11T08:27:29;7.40;99.90
2030;DHT22;1020;48.854;8.830;2022-11-11T08:29:56;7.50;99.90
2030;DHT22;1020;48.854;8.830;2022-11-11T08:32:24;7.70;99.90
2030;DHT22;1020;48.854;8.830;2022-11-11T08:34:51;7.60;99.90
2030;DHT22;1020;48.854;8.830;2022-11-11T08:37:18;7.50;99.90
2030;DHT22;1020;48.854;8.830;2022-11-11T08:39:44;7.50;99.90
2030;DHT22;1020;48.854;8.830;2022-11-11T08:42:11;7.50;99.90
2030;DHT22;1020;48.854;8.830;2022-11-11T08:44:38;7.70;99.90
2030;DHT22;1020;48.854;8.830;2022-11-11T08:47:05;7.90;99.90
2030;DHT22;1020;48.854;8.830;2022-11-11T08:49:33;8.20;99.90
2030;DHT22;1020;48.854;8.830;2022-11-11T08:52:00;8.60;99.90
2030;DHT22;1020;48.854;8.830;2022-11-11T08:54:26;9.00;90.10
2030;DHT22;1020;48.854;8.830;2022-11-11T08:56:54;9.20;66.70
2030;DHT22;1020;48.854;8.830;2022-11-11T08:59:21;9.50;41.70
2030;DHT22;1020;48.854;8.830;2022-11-11T09:01:47;9.90;26.30
2030;DHT22;1020;48.854;8.830;2022-11-11T09:04:14;10.40;1.00
2030;DHT22;1020;48.854;8.830;2022-11-11T09:06:43;10.60;1.00
2030;DHT22;1020;48.854;8.830;2022-11-11T09:09:12;11.00;1.00
2030;DHT22;1020;48.854;8.830;2022-11-11T09:11:39;11.50;1.00
2030;DHT22;1020;48.854;8.830;2022-11-11T09:14:06;11.70;99.90
2030;DHT22;1020;48.854;8.830;2022-11-11T09:16:33;12.10;99.90
2030;DHT22;1020;48.854;8.830;2022-11-11T09:18:59;12.60;99.90
2030;DHT22;1020;48.854;8.830;2022-11-11T09:21:26;13.60;1.00
2030;DHT22;1020;48.854;8.830;2022-11-11T09:23:54;14.40;1.00
2030;DHT22;1020;48.854;8.830;2022-11-11T09:26:21;15.00;1.00
2030;DHT22;1020;48.854;8.830;2022-11-11T09:28:48;15.40;39.80
2030;DHT22;1020;48.854;8.830;2022-11-11T09:31:14;14.90;1.00
2030;DHT22;1020;48.854;8.830;2022-11-11T09:33:41;15.10;99.90
2030;DHT22;1020;48.854;8.830;2022-11-11T09:36:08;15.30;1.00
2030;DHT22;1020;48.854;8.830;2022-11-11T09:38:35;15.70;1.00
2030;DHT22;1020;48.854;8.830;2022-11-11T09:41:14;16.60;1.00
2030;DHT22;1020;48.854;8.830;2022-11-11T09:43:47;16.90;99.90
2030;DHT22;1020;48.854;8.830;2022-11-11T09:46:26;17.10;1.00
2030;DHT22;1020;48.854;8.830;2022-11-11T09:49:08;17.50;99.90
2030;DHT22;1020;48.854;8.830;2022-11-11T09:51:42;16.70;99.90
2030;DHT22;1020;48.854;8.830;2022-11-11T09:54:16;16.30;1.00
2030;DHT22;1020;48.854;8.830;2022-11-11T09:56:45;15.60;1.00
2030;DHT22;1020;48.854;8.830;2022-11-11T09:59:15;15.20;99.90
2030;DHT22;1020;48.854;8.830;2022-11-11T10:01:46;15.80;1.00
2030;DHT22;1020;48.854;8.830;2022-11-11T10:04:25;16.00;99.90
2030;DHT22;1020;48.854;8.830;2022-11-11T10:06:56;16.40;1.00
2030;DHT22;1020;48.854;8.830;2022-11-11T10:09:27;17.10;1.00
2030;DHT22;1020;48.854;8.830;2022-11-11T10:12:04;16.90;99.90
2030;DHT22;1020;48.854;8.830;2022-11-11T10:14:36;17.40;99.90
2030;DHT22;1020;48.854;8.830;2022-11-11T10:17:10;17.60;99.90
2030;DHT22;1020;48.854;8.830;2022-11-11T10:19:49;17.70;99.90
2030;DHT22;1020;48.854;8.830;2022-11-11T10:22:20;17.50;99.90
2030;DHT22;1020;48.854;8.830;2022-11-11T10:24:58;17.20;1.00
2030;DHT22;1020;48.854;8.830;2022-11-11T10:27:30;16.90;1.00
2030;DHT22;1020;48.854;8.830;2022-11-11T10:30:00;17.20;17.90
2030;DHT22;1020;48.854;8.830;2022-11-11T10:32:34;17.00;1.00
2030;DHT22;1020;48.854;8.830;2022-11-11T10:35:14;17.50;1.00
2030;DHT22;1020;48.854;8.830;2022-11-11T10:37:42;17.50;99.90
2030;DHT22;1020;48.854;8.830;2022-11-11T10:40:16;17.60;99.90
2030;DHT22;1020;48.854;8.830;2022-11-11T10:42:45;17.90;99.90
2030;DHT22;1020;48.854;8.830;2022-11-11T10:45:21;18.50;99.90
2030;DHT22;1020;48.854;8.830;2022-11-11T10:47:53;18.40;47.50
2030;DHT22;1020;48.854;8.830;2022-11-11T10:50:24;18.50;43.30
2030;DHT22;1020;48.854;8.830;2022-11-11T10:52:58;19.00;37.40
2030;DHT22;1020;48.854;8.830;2022-11-11T10:55:29;19.20;1.00
2030;DHT22;1020;48.854;8.830;2022-11-11T10:58:06;20.10;1.00
2030;DHT22;1020;48.854;8.830;2022-11-11T11:00:36;20.20;1.00
2030;DHT22;1020;48.854;8.830;2022-11-11T11:03:09;20.50;1.00
2030;DHT22;1020;48.854;8.830;2022-11-11T11:05:41;21.00;1.00
2030;DHT22;1020;48.854;8.830;2022-11-11T11:08:14;21.30;1.00
2030;DHT22;1020;48.854;8.830;2022-11-11T11:10:46;21.20;1.00
2030;DHT22;1020;48.854;8.830;2022-11-11T11:13:16;20.90;1.00
2030;DHT22;1020;48.854;8.830;2022-11-11T11:15:47;21.00;1.00
2030;DHT22;1020;48.854;8.830;2022-11-11T11:18:18;21.10;1.00
2030;DHT22;1020;48.854;8.830;2022-11-11T11:20:55;20.50;1.00
2030;DHT22;1020;48.854;8.830;2022-11-11T11:23:35;20.90;1.00
2030;DHT22;1020;48.854;8.830;2022-11-11T11:26:02;21.20;1.00
2030;DHT22;1020;48.854;8.830;2022-11-11T11:28:31;21.80;1.00
2030;DHT22;1020;48.854;8.830;2022-11-11T11:31:00;22.10;1.00
2030;DHT22;1020;48.854;8.830;2022-11-11T11:33:27;21.20;1.00
2030;DHT22;1020;48.854;8.830;2022-11-11T11:36:16;20.80;1.00
2030;DHT22;1020;48.854;8.830;2022-11-11T11:38:45;20.90;1.00
2030;DHT22;1020;48.854;8.830;2022-11-11T11:41:12;21.00;1.00
2030;DHT22;1020;48.854;8.830;2022-11-11T11:43:40;20.80;1.00
2030;DHT22;1020;48.854;8.830;2022-11-11T11:46:18;21.50;1.00
2030;DHT22;1020;48.854;8.830;2022-11-11T11:49:05;22.40;1.00
2030;DHT22;1020;48.854;8.830;2022-11-11T11:51:38;23.10;1.00
2030;DHT22;1020;48.854;8.830;2022-11-11T11:54:20;23.60;1.00
2030;DHT22;1020;48.854;8.830;2022-11-11T11:56:53;23.70;99.90
2030;DHT22;1020;48.854;8.830;2022-11-11T11:59:30;24.10;99.90
2030;DHT22;1020;48.854;8.830;2022-11-11T12:02:02;24.20;99.90
2030;DHT22;1020;48.854;8.830;2022-11-11T12:07:44;24.20;99.90
2030;DHT22;1020;48.854;8.830;2022-11-11T12:10:25;24.50;99.90
2030;DHT22;1020;48.854;8.830;2022-11-11T12:12:58;24.50;99.90
2030;DHT22;1020;48.854;8.830;2022-11-11T12:15:35;24.80;99.90
2030;DHT22;1020;48.854;8.830;2022-11-11T12:18:17;24.80;99.90
2030;DHT22;1020;48.854;8.830;2022-11-11T12:20:49;24.50;99.90
2030;DHT22;1020;48.854;8.830;2022-11-11T12:23:39;24.60;99.90
2030;DHT22;1020;48.854;8.830;2022-11-11T12:26:14;23.60;99.90
2030;DHT22;1020;48.854;8.830;2022-11-11T12:28:54;23.40;99.90
2030;DHT22;1020;48.854;8.830;2022-11-11T12:31:31;23.50;99.90
2030;DHT22;1020;48.854;8.830;2022-11-11T12:34:14;23.80;99.90
2030;DHT22;1020;48.854;8.830;2022-11-11T12:36:49;24.00;99.90
2030;DHT22;1020;48.854;8.830;2022-11-11T12:39:37;24.10;99.90
2030;DHT22;1020;48.854;8.830;2022-11-11T12:42:12;24.30;99.90
2030;DHT22;1020;48.854;8.830;2022-11-11T12:44:52;25.00;99.90
2030;DHT22;1020;48.854;8.830;2022-11-11T12:47:26;24.60;99.90
2030;DHT22;1020;48.854;8.830;2022-11-11T12:50:07;23.30;99.90
2030;DHT22;1020;48.854;8.830;2022-11-11T12:52:49;22.60;99.90
2030;DHT22;1020;48.854;8.830;2022-11-11T12:55:22;22.90;99.90
2030;DHT22;1020;48.854;8.830;2022-11-11T12:58:14;21.90;99.90
2030;DHT22;1020;48.854;8.830;2022-11-11T13:00:50;21.90;99.90
2030;DHT22;1020;48.854;8.830;2022-11-11T13:06:37;22.00;1.00
2030;DHT22;1020;48.854;8.830;2022-11-11T13:09:17;21.70;1.00
2030;DHT22;1020;48.854;8.830;2022-11-11T13:11:56;21.90;1.00
2030;DHT22;1020;48.854;8.830;2022-11-11T13:14:39;21.70;1.00
2030;DHT22;1020;48.854;8.830;2022-11-11T13:17:11;21.50;1.00
2030;DHT22;1020;48.854;8.830;2022-11-11T13:19:42;21.10;1.00
2030;DHT22;1020;48.854;8.830;2022-11-11T13:22:15;20.50;10.80
2030;DHT22;1020;48.854;8.830;2022-11-11T13:24:46;20.80;38.80
2030;DHT22;1020;48.854;8.830;2022-11-11T13:27:15;21.10;1.00
2030;DHT22;1020;48.854;8.830;2022-11-11T13:30:06;20.70;1.00
2030;DHT22;1020;48.854;8.830;2022-11-11T13:32:41;19.60;99.90
2030;DHT22;1020;48.854;8.830;2022-11-11T13:35:21;18.80;99.90
2030;DHT22;1020;48.854;8.830;2022-11-11T13:37:49;18.50;99.90
2030;DHT22;1020;48.854;8.830;2022-11-11T13:40:33;18.80;99.90
2030;DHT22;1020;48.854;8.830;2022-11-11T13:43:01;19.20;60.10
2030;DHT22;1020;48.854;8.830;2022-11-11T13:45:32;19.40;1.00
2030;DHT22;1020;48.854;8.830;2022-11-11T13:48:00;18.40;1.00
2030;DHT22;1020;48.854;8.830;2022-11-11T13:50:31;18.10;99.90
2030;DHT22;1020;48.854;8.830;2022-11-11T13:53:00;18.10;99.90
2030;DHT22;1020;48.854;8.830;2022-11-11T13:55:31;17.70;99.90
2030;DHT22;1020;48.854;8.830;2022-11-11T13:57:59;17.50;1.00
2030;DHT22;1020;48.854;8.830;2022-11-11T14:00:30;17.50;1.00
2030;DHT22;1020;48.854;8.830;2022-11-11T14:03:29;17.60;31.50
2030;DHT22;1020;48.854;8.830;2022-11-11T14:06:47;17.60;99.90
2030;DHT22;1020;48.854;8.830;2022-11-11T14:12:21;18.10;99.90
2030;DHT22;1020;48.854;8.830;2022-11-11T14:14:55;18.30;1.00
2030;DHT22;1020;48.854;8.830;2022-11-11T14:17:22;18.20;1.00
2030;DHT22;1020;48.854;8.830;2022-11-11T14:19:49;18.20;99.90
2030;DHT22;1020;48.854;8.830;2022-11-11T14:22:28;18.30;1.00
2030;DHT22;1020;48.854;8.830;2022-11-11T14:25:10;18.20;1.00
2030;DHT22;1020;48.854;8.830;2022-11-11T14:27:44;18.20;1.00
2030;DHT22;1020;48.854;8.830;2022-11-11T14:30:35;18.10;99.90
2030;DHT22;1020;48.854;8.830;2022-11-11T14:33:08;18.20;1.00
2030;DHT22;1020;48.854;8.830;2022-11-11T14:35:43;18.30;1.00
2030;DHT22;1020;48.854;8.830;2022-11-11T14:38:24;18.30;99.90
2030;DHT22;1020;48.854;8.830;2022-11-11T14:40:53;18.30;99.90
2030;DHT22;1020;48.854;8.830;2022-11-11T14:43:36;18.40;59.50
2030;DHT22;1020;48.854;8.830;2022-11-11T14:46:08;18.50;1.00
2030;DHT22;1020;48.854;8.830;2022-11-11T14:48:59;18.50;1.00
2030;DHT22;1020;48.854;8.830;2022-11-11T14:51:40;18.40;1.00
2030;DHT22;1020;48.854;8.830;2022-11-11T14:57:03;18.40;1.00
2030;DHT22;1020;48.854;8.830;2022-11-11T14:59:31;18.40;99.90
2030;DHT22;1020;48.854;8.830;2022-11-11T15:01:59;18.30;99.90
2030;DHT22;1020;48.854;8.830;2022-11-11T15:04:37;18.10;99.90
2030;DHT22;1020;48.854;8.830;2022-11-11T15:07:05;18.10;1.00
2030;DHT22;1020;48.854;8.830;2022-11-11T15:15:53;17.00;1.00
2030;DHT22;1020;48.854;8.830;2022-11-11T15:18:45;16.70;99.90
2030;DHT22;1020;48.854;8.830;2022-11-11T15:21:18;16.50;99.90
2030;DHT22;1020;48.854;8.830;2022-11-11T15:23:51;16.30;99.90
2030;DHT22;1020;48.854;8.830;2022-11-11T15:26:29;16.20;99.90
2030;DHT22;1020;48.854;8.830;2022-11-11T15:29:13;16.00;57.20
2030;DHT22;1020;48.854;8.830;2022-11-11T15:31:53;15.70;1.00
2030;DHT22;1020;48.854;8.830;2022-11-11T15:34:31;15.40;1.00
2030;DHT22;1020;48.854;8.830;2022-11-11T15:37:01;15.20;99.90
2030;DHT22;1020;48.854;8.830;2022-11-11T15:39:37;15.00;99.90
2030;DHT22;1020;48.854;8.830;2022-11-11T15:42:11;14.80;99.90
2030;DHT22;1020;48.854;8.830;2022-11-11T15:44:38;14.60;99.90
2030;DHT22;1020;48.854;8.830;2022-11-11T15:47:06;14.40;99.90
2030;DHT22;1020;48.854;8.830;2022-11-11T15:49:39;14.20;1.00
2030;DHT22;1020;48.854;8.830;2022-11-11T15:52:26;14.00;1.00
2030;DHT22;1020;48.854;8.830;2022-11-11T15:54:53;13.70;12.00
2030;DHT22;1020;48.854;8.830;2022-11-11T15:57:24;13.50;99.90
2030;DHT22;1020;48.854;8.830;2022-11-11T15:59:51;13.40;99.90
2030;DHT22;1020;48.854;8.830;2022-11-11T16:02:19;13.30;1.00
2030;DHT22;1020;48.854;8.830;2022-11-11T16:04:48;13.10;70.30
2030;DHT22;1020;48.854;8.830;2022-11-11T16:07:20;13.00;99.90
2030;DHT22;1020;48.854;8.830;2022-11-11T16:09:48;12.80;1.00
2030;DHT22;1020;48.854;8.830;2022-11-11T16:12:18;12.70;28.40
2030;DHT22;1020;48.854;8.830;2022-11-11T16:14:50;12.50;99.90
2030;DHT22;1020;48.854;8.830;2022-11-11T16:17:19;12.20;99.90
2030;DHT22;1020;48.854;8.830;2022-11-11T16:19:48;12.00;1.00
2030;DHT22;1020;48.854;8.830;2022-11-11T16:22:18;11.90;1.00
2030;DHT22;1020;48.854;8.830;2022-11-11T16:24:47;11.80;1.00
2030;DHT22;1020;48.854;8.830;2022-11-11T16:27:16;11.70;1.00
2030;DHT22;1020;48.854;8.830;2022-11-11T16:29:44;11.50;1.00
2030;DHT22;1020;48.854;8.830;2022-11-11T16:32:33;11.30;99.90
2030;DHT22;1020;48.854;8.830;2022-11-11T16:35:00;11.20;1.00
2030;DHT22;1020;48.854;8.830;2022-11-11T16:37:27;11.00;1.00
2030;DHT22;1020;48.854;8.830;2022-11-11T16:39:54;10.80;1.00
2030;DHT22;1020;48.854;8.830;2022-11-11T16:42:23;10.70;1.00
2030;DHT22;1020;48.854;8.830;2022-11-11T16:44:54;10.70;1.00
2030;DHT22;1020;48.854;8.830;2022-11-11T16:47:45;10.70;1.00
2030;DHT22;1020;48.854;8.830;2022-11-11T16:50:16;10.60;1.00
2030;DHT22;1020;48.854;8.830;2022-11-11T16:52:47;10.50;1.00
2030;DHT22;1020;48.854;8.830;2022-11-11T16:55:19;10.40;1.00
2030;DHT22;1020;48.854;8.830;2022-11-11T16:57:48;10.30;1.00
2030;DHT22;1020;48.854;8.830;2022-11-11T17:00:17;10.30;1.00
2030;DHT22;1020;48.854;8.830;2022-11-11T17:02:46;10.30;1.00